createdAt,value
2023-01-22T00:00:37.749Z,20.5
2023-01-22T00:01:17.289Z,20.89
2023-01-22T00:02:16.683Z,20.39
2023-01-22T00:03:16.806Z,21.29
2023-01-22T00:04:16.835Z,20.29
2023-01-22T00:05:17.102Z,20.70
2023-01-22T00:06:16.564Z,19.79
2023-01-22T00:07:16.466Z,20.70
2023-01-22T00:08:16.662Z,20.29
2023-01-22T00:09:16.753Z,20.89
2023-01-22T00:10:17.536Z,20.5
2023-01-22T00:11:16.287Z,20.39
2023-01-22T00:12:16.474Z,20
2023-01-22T00:13:16.727Z,20.20
2023-01-22T00:14:16.502Z,19.89
2023-01-22T00:15:16.881Z,19.60
2023-01-22T00:16:16.816Z,20.29
2023-01-22T00:17:16.384Z,20.5
2023-01-22T00:18:16.473Z,20.79
2023-01-22T00:19:16.383Z,20.89
2023-01-22T00:20:16.592Z,20.29
2023-01-22T00:22:16.955Z,19.5
2023-01-22T00:23:16.760Z,19.89
2023-01-22T00:24:16.627Z,22.10
2023-01-22T00:25:16.181Z,21.10
2023-01-22T00:26:16.385Z,21.29
2023-01-22T00:27:16.413Z,20.29
2023-01-22T00:28:16.639Z,21.5
2023-01-22T00:29:16.762Z,19.79
2023-01-22T00:30:17.282Z,21.20
2023-01-22T00:31:16.636Z,21.79
2023-01-22T00:32:16.548Z,20.79
2023-01-22T00:33:16.397Z,21.29
2023-01-22T00:34:16.639Z,21.60
2023-01-22T00:35:16.797Z,20.89
2023-01-22T00:36:16.904Z,21.10
2023-01-22T00:37:16.728Z,22.60
2023-01-22T00:38:16.786Z,21.5
2023-01-22T00:39:16.812Z,21.79
2023-01-22T00:40:17.127Z,22
2023-01-22T00:41:16.300Z,21.70
2023-01-22T00:42:16.463Z,22.5
2023-01-22T00:43:16.539Z,21.89
2023-01-22T00:44:16.430Z,22
2023-01-22T00:45:16.716Z,21.89
2023-01-22T00:46:16.741Z,21.70
2023-01-22T00:47:16.523Z,21.89
2023-01-22T00:50:17.036Z,21.20
2023-01-22T00:51:16.137Z,22.10
2023-01-22T00:53:16.228Z,21.89
2023-01-22T00:54:16.237Z,21.60
2023-01-22T00:55:16.174Z,21.5
2023-01-22T00:56:16.059Z,20.79
2023-01-22T00:57:16.350Z,21.29
2023-01-22T00:59:16.436Z,21.20
2023-01-22T01:01:18.750Z,20.89
2023-01-22T01:02:17.268Z,21
2023-01-22T01:03:16.416Z,21.29
2023-01-22T01:05:16.449Z,20.79
2023-01-22T01:06:16.289Z,20.89
2023-01-22T01:07:16.332Z,21.39
2023-01-22T01:08:16.682Z,20.79
2023-01-22T01:09:16.425Z,21.10
2023-01-22T01:10:16.859Z,20.70
2023-01-22T01:11:16.832Z,20.10
2023-01-22T01:12:16.774Z,21
2023-01-22T01:13:16.821Z,19.60
2023-01-22T01:14:16.587Z,21.79
2023-01-22T01:15:16.724Z,20.10
2023-01-22T01:16:16.480Z,19.79
2023-01-22T01:17:17.055Z,21
2023-01-22T01:18:16.352Z,20.60
2023-01-22T01:19:16.691Z,20.70
2023-01-22T01:20:16.948Z,21.39
2023-01-22T01:21:16.318Z,21
2023-01-22T01:22:16.434Z,20.39
2023-01-22T01:23:16.662Z,19.39
2023-01-22T01:24:16.776Z,20.70
2023-01-22T01:25:16.804Z,20.39
2023-01-22T01:26:16.859Z,19.5
2023-01-22T01:27:16.817Z,20.39
2023-01-22T01:28:16.673Z,18.60
2023-01-22T01:29:16.738Z,20.5
2023-01-22T01:30:17.283Z,19.20
2023-01-22T01:31:16.871Z,19.10
2023-01-22T01:32:16.999Z,19.5
2023-01-22T01:33:16.628Z,19.60
2023-01-22T01:34:16.895Z,19.5
2023-01-22T01:35:16.727Z,20.60
2023-01-22T01:36:17.226Z,20.10
2023-01-22T01:37:16.689Z,19.29
2023-01-22T01:38:16.585Z,19.89
2023-01-22T01:39:16.571Z,20.10
2023-01-22T01:40:16.947Z,20.29
2023-01-22T01:41:16.860Z,20.10
2023-01-22T01:42:16.914Z,18.60
2023-01-22T01:43:16.754Z,20
2023-01-22T01:44:16.468Z,19.39
2023-01-22T01:45:16.553Z,19.20
2023-01-22T01:46:16.552Z,19.70
2023-01-22T01:47:16.692Z,19.60
2023-01-22T01:48:16.870Z,19.5
2023-01-22T01:49:16.959Z,18.89
2023-01-22T01:50:17.102Z,19.29
2023-01-22T01:51:16.418Z,19
2023-01-22T01:52:16.229Z,19.79
2023-01-22T01:53:17.014Z,19.29
2023-01-22T01:54:16.689Z,19.70
2023-01-22T01:55:21.827Z,19.39
2023-01-22T01:56:16.244Z,19.70
2023-01-22T01:57:16.270Z,19.5
2023-01-22T01:58:16.331Z,19.39
2023-01-22T01:59:16.256Z,18.39
2023-01-22T02:00:17.334Z,19
2023-01-22T02:02:16.740Z,19.70
2023-01-22T02:03:16.862Z,19.10
2023-01-22T02:04:16.203Z,20
2023-01-22T02:05:16.443Z,18.5
2023-01-22T02:06:16.556Z,19.5
2023-01-22T02:07:16.650Z,19.29
2023-01-22T02:08:17.214Z,19.39
2023-01-22T02:09:16.299Z,19.79
2023-01-22T02:10:16.833Z,19.70
2023-01-22T02:12:16.414Z,19.60
2023-01-22T02:13:16.386Z,19.10
2023-01-22T02:14:16.387Z,19.20
2023-01-22T02:17:16.899Z,19
2023-01-22T02:18:16.672Z,19.60
2023-01-22T02:19:16.640Z,19.10
2023-01-22T02:20:17.121Z,18.5
2023-01-22T02:21:16.353Z,18.29
2023-01-22T02:22:16.388Z,19.20
2023-01-22T02:23:16.819Z,19.60
2023-01-22T02:25:16.680Z,18.39
2023-01-22T02:26:16.758Z,18.60
2023-01-22T02:28:16.517Z,18.29
2023-01-22T02:29:16.758Z,18.39
2023-01-22T02:30:17.258Z,17.89
2023-01-22T02:31:16.801Z,18.39
2023-01-22T02:32:16.930Z,18.5
2023-01-22T02:34:16.882Z,18.70
2023-01-22T02:35:16.981Z,18
2023-01-22T02:36:16.525Z,17
2023-01-22T02:37:16.477Z,19.10
2023-01-22T02:38:16.522Z,18.5
2023-01-22T02:39:16.473Z,17.89
2023-01-22T02:40:16.787Z,19.20
2023-01-22T02:41:16.939Z,17.89
2023-01-22T02:42:17.367Z,18.29
2023-01-22T02:43:16.455Z,18.5
2023-01-22T02:44:16.584Z,17.79
2023-01-22T02:45:16.830Z,18.79
2023-01-22T02:46:16.637Z,18.5
2023-01-22T02:47:16.491Z,18
2023-01-22T02:48:16.853Z,17.70
2023-01-22T02:49:16.185Z,17.89
2023-01-22T02:50:16.828Z,17.39
2023-01-22T02:51:16.732Z,18
2023-01-22T02:52:16.516Z,18.29
2023-01-22T02:53:16.811Z,17.60
2023-01-22T02:54:16.717Z,18.20
2023-01-22T02:55:16.681Z,17.5
2023-01-22T02:56:16.501Z,17.79
2023-01-22T02:57:16.609Z,17.70
2023-01-22T02:58:16.660Z,18.10
2023-01-22T02:59:16.642Z,17.29
2023-01-22T03:00:17.678Z,17
2023-01-22T03:01:16.496Z,17.29
2023-01-22T03:02:17.014Z,18
2023-01-22T03:03:16.742Z,18.39
2023-01-22T03:06:16.213Z,18
2023-01-22T03:07:16.301Z,17.60
2023-01-22T03:08:16.366Z,18.70
2023-01-22T03:09:16.475Z,18.5
2023-01-22T03:10:16.946Z,19.5
2023-01-22T03:11:16.447Z,18
2023-01-22T03:12:16.414Z,18.79
2023-01-22T03:13:16.393Z,18.5
2023-01-22T03:14:16.351Z,17.60
2023-01-22T03:15:17.174Z,17.29
2023-01-22T03:16:16.230Z,18.29
2023-01-22T03:17:16.241Z,17.79
2023-01-22T03:18:16.056Z,19
2023-01-22T03:19:16.987Z,18.39
2023-01-22T03:20:17.112Z,19.60
2023-01-22T03:21:16.188Z,18.89
2023-01-22T03:22:16.205Z,20
2023-01-22T03:23:16.290Z,19.70
2023-01-22T03:24:16.225Z,18.70
2023-01-22T03:25:16.292Z,19.39
2023-01-22T03:26:16.238Z,18.70
2023-01-22T03:27:16.429Z,19.70
2023-01-22T03:28:16.435Z,19.79
2023-01-22T03:29:16.524Z,18.5
2023-01-22T03:30:17.081Z,19.5
2023-01-22T03:31:16.682Z,18.79
2023-01-22T03:32:16.902Z,19.29
2023-01-22T03:33:15.979Z,19.39
2023-01-22T03:34:16.910Z,19
2023-01-22T03:35:17.196Z,19.79
2023-01-22T03:36:16.369Z,19.10
2023-01-22T03:37:16.328Z,19.70
2023-01-22T03:38:16.029Z,20.10
2023-01-22T03:39:17.061Z,19.89
2023-01-22T03:40:17.275Z,19.10
2023-01-22T03:41:16.432Z,20.60
2023-01-22T03:42:16.396Z,20.5
2023-01-22T03:43:16.798Z,20.20
2023-01-22T03:44:16.849Z,20.70
2023-01-22T03:45:16.984Z,20.39
2023-01-22T03:46:16.885Z,20.5
2023-01-22T03:48:16.759Z,20.20
2023-01-22T03:49:16.490Z,19.60
2023-01-22T03:50:16.954Z,20.60
2023-01-22T03:51:16.624Z,19.5
2023-01-22T03:52:16.709Z,19.79
2023-01-22T03:53:16.694Z,19.39
2023-01-22T03:54:16.482Z,20
2023-01-22T03:55:16.636Z,19.10
2023-01-22T03:56:16.585Z,18.89
2023-01-22T03:57:16.528Z,19.70
2023-01-22T03:58:16.428Z,19.60
2023-01-22T03:59:16.521Z,20.10
2023-01-22T04:00:17.807Z,19.39
2023-01-22T04:01:16.492Z,19.70
2023-01-22T04:02:16.780Z,19.5
2023-01-22T04:03:16.578Z,19.29
2023-01-22T04:04:16.605Z,20.5
2023-01-22T04:05:16.631Z,20.29
2023-01-22T04:06:16.587Z,20.89
2023-01-22T04:07:16.487Z,19.89
2023-01-22T04:08:16.298Z,19.79
2023-01-22T04:09:16.436Z,18.79
2023-01-22T04:10:16.959Z,20
2023-01-22T04:12:16.524Z,20.20
2023-01-22T04:13:16.606Z,20.5
2023-01-22T04:14:16.653Z,19.70
2023-01-22T04:15:16.914Z,20.79
2023-01-22T04:16:16.691Z,21
2023-01-22T04:17:16.857Z,20.5
2023-01-22T04:18:16.769Z,20
2023-01-22T04:19:16.781Z,20.10
2023-01-22T04:21:16.465Z,20.70
2023-01-22T04:22:16.388Z,20.5
2023-01-22T04:23:16.529Z,19.60
2023-01-22T04:24:16.701Z,20.10
2023-01-22T04:25:16.993Z,19.89
2023-01-22T04:26:16.677Z,20.39
2023-01-22T04:27:16.829Z,20.20
2023-01-22T04:28:16.559Z,20.70
2023-01-22T04:29:16.523Z,20.20
2023-01-22T04:30:17.137Z,20.10
2023-01-22T04:31:16.526Z,20.60
2023-01-22T04:32:16.986Z,19.79
2023-01-22T04:33:17.019Z,21.29
2023-01-22T04:34:17.060Z,19.39
2023-01-22T04:35:16.653Z,20.20
2023-01-22T04:36:16.638Z,19.29
2023-01-22T04:37:16.296Z,19.89
2023-01-22T04:38:30.298Z,20.10
2023-01-22T04:39:16.669Z,19.60
2023-01-22T04:40:30.843Z,20.39
2023-01-22T04:41:16.475Z,19.20
2023-01-22T04:42:16.461Z,19.5
2023-01-22T04:43:16.687Z,19.79
2023-01-22T04:44:16.898Z,19.89
2023-01-22T04:45:17.280Z,19.20
2023-01-22T04:46:16.585Z,18.79
2023-01-22T04:47:16.878Z,20.60
2023-01-22T04:48:16.949Z,20.10
2023-01-22T04:49:16.330Z,19.60
2023-01-22T04:50:16.780Z,21.10
2023-01-22T04:51:16.815Z,19.79
2023-01-22T04:52:15.844Z,20.20
2023-01-22T04:54:16.572Z,19.60
2023-01-22T04:55:16.863Z,20
2023-01-22T04:56:16.706Z,20.20
2023-01-22T04:57:16.569Z,20.39
2023-01-22T04:58:16.755Z,19.20
2023-01-22T04:59:16.420Z,19.39
2023-01-22T05:00:17.679Z,20.10
2023-01-22T05:01:16.719Z,20.79
2023-01-22T05:02:16.867Z,20.39
2023-01-22T05:04:16.703Z,20
2023-01-22T05:05:16.943Z,19.5
2023-01-22T05:06:16.294Z,20.60
2023-01-22T05:07:16.768Z,19.70
2023-01-22T05:08:16.797Z,19.79
2023-01-22T05:09:16.994Z,20.5
2023-01-22T05:10:17.237Z,20.39
2023-01-22T05:11:16.571Z,20.60
2023-01-22T05:12:16.486Z,20.5
2023-01-22T05:13:16.467Z,19.10
2023-01-22T05:14:16.553Z,20.5
2023-01-22T05:15:24.136Z,20.29
2023-01-22T05:16:17.089Z,20.89
2023-01-22T05:17:16.777Z,21.10
2023-01-22T05:18:16.509Z,20.10
2023-01-22T05:19:16.515Z,21.20
2023-01-22T05:20:17.007Z,19.89
2023-01-22T05:21:16.533Z,22.10
2023-01-22T05:22:16.934Z,20.39
2023-01-22T05:23:16.521Z,20.79
2023-01-22T05:24:16.700Z,20.39
2023-01-22T05:26:16.646Z,20.89
2023-01-22T05:27:16.925Z,20.20
2023-01-22T05:28:16.384Z,20.10
2023-01-22T05:29:16.789Z,19.89
2023-01-22T05:30:17.369Z,19.79
2023-01-22T05:31:16.935Z,20.60
2023-01-22T05:32:16.228Z,20.20
2023-01-22T05:33:16.615Z,20.39
2023-01-22T05:34:16.738Z,20.5
2023-01-22T05:35:17.141Z,20.10
2023-01-22T05:36:16.423Z,20.70
2023-01-22T05:37:16.521Z,19.5
2023-01-22T05:38:16.897Z,20.39
2023-01-22T05:39:16.874Z,19.89
2023-01-22T05:40:16.673Z,19.79
2023-01-22T05:41:16.590Z,19.70
2023-01-22T05:42:16.682Z,20.79
2023-01-22T05:43:16.951Z,20
2023-01-22T05:44:16.253Z,19.39
2023-01-22T05:45:16.989Z,20.29
2023-01-22T05:46:17.062Z,20.60
2023-01-22T05:47:16.609Z,19.5
2023-01-22T05:48:16.724Z,20.29
2023-01-22T05:49:17.021Z,20.10
2023-01-22T05:50:17.106Z,19.5
2023-01-22T05:51:16.967Z,19.70
2023-01-22T05:52:16.375Z,19.60
2023-01-22T05:53:16.744Z,20.20
2023-01-22T05:54:16.776Z,19.29
2023-01-22T05:55:16.978Z,19.10
2023-01-22T05:56:16.904Z,19.29
2023-01-22T05:57:16.386Z,18.70
2023-01-22T05:58:16.372Z,19.60
2023-01-22T05:59:16.730Z,18.89
2023-01-22T06:00:17.949Z,19.20
2023-01-22T06:01:16.599Z,19.39
2023-01-22T06:02:17.284Z,18.70
2023-01-22T06:03:16.762Z,18.79
2023-01-22T06:04:17.099Z,19.39
2023-01-22T06:05:16.636Z,18.70
2023-01-22T06:06:16.906Z,18.79
2023-01-22T06:08:16.481Z,18.5
2023-01-22T06:09:17.072Z,18.89
2023-01-22T06:10:17.144Z,18.70
2023-01-22T06:11:16.694Z,19.29
2023-01-22T06:12:17.168Z,18.89
2023-01-22T06:13:16.540Z,19.89
2023-01-22T06:14:16.983Z,18.5
2023-01-22T06:15:16.692Z,19.29
2023-01-22T06:16:17.005Z,19.39
2023-01-22T06:17:16.830Z,18.79
2023-01-22T06:18:17.228Z,19.39
2023-01-22T06:19:16.748Z,18.39
2023-01-22T06:21:16.966Z,18.70
2023-01-22T06:22:16.976Z,20.39
2023-01-22T06:23:16.857Z,18.89
2023-01-22T06:24:16.600Z,18.70
2023-01-22T06:25:17.148Z,18.79
2023-01-22T06:26:16.756Z,18.10
2023-01-22T06:27:17.111Z,18.79
2023-01-22T06:28:17.042Z,18
2023-01-22T06:29:17.111Z,18.60
2023-01-22T06:30:17.184Z,18.70
2023-01-22T06:31:16.720Z,18.10
2023-01-22T06:32:16.720Z,18.79
2023-01-22T06:33:17.113Z,18.10
2023-01-22T06:34:16.624Z,18.20
2023-01-22T06:35:16.725Z,17.29
2023-01-22T06:36:17.130Z,18.60
2023-01-22T06:37:16.840Z,18.79
2023-01-22T06:38:16.709Z,19.29
2023-01-22T06:39:16.970Z,18.10
2023-01-22T06:40:17.207Z,17.70
2023-01-22T06:41:16.740Z,17.89
2023-01-22T06:42:17.160Z,18.20
2023-01-22T06:43:16.740Z,17.79
2023-01-22T06:44:17.313Z,18
2023-01-22T06:45:17.346Z,18.20
2023-01-22T06:46:16.983Z,18.10
2023-01-22T06:47:16.840Z,18.29
2023-01-22T06:48:16.651Z,18.20
2023-01-22T06:49:16.939Z,18
2023-01-22T06:50:19.093Z,19
2023-01-22T06:51:17.471Z,18.5
2023-01-22T06:52:16.832Z,17.20
2023-01-22T06:53:17.390Z,17.89
2023-01-22T06:54:16.968Z,16.89
2023-01-22T06:55:17.523Z,17.60
2023-01-22T06:56:17.219Z,17.20
2023-01-22T06:57:16.797Z,16.79
2023-01-22T06:58:17.364Z,18.70
2023-01-22T06:59:16.733Z,18
2023-01-22T07:00:18.224Z,17.70
2023-01-22T07:01:16.496Z,17.89
2023-01-22T07:02:16.910Z,17.39
2023-01-22T07:03:17.014Z,18.39
2023-01-22T07:04:16.596Z,17.79
2023-01-22T07:05:17.092Z,18.60
2023-01-22T07:06:16.675Z,17.5
2023-01-22T07:07:16.375Z,17.29
2023-01-22T07:08:16.574Z,17.70
2023-01-22T07:09:16.881Z,18.39
2023-01-22T07:10:17.276Z,17.5
2023-01-22T07:11:16.770Z,17.70
2023-01-22T07:12:16.090Z,18.10
2023-01-22T07:13:17.188Z,17.29
2023-01-22T07:14:21.358Z,17.39
2023-01-22T07:15:16.678Z,17.70
2023-01-22T07:16:16.899Z,16.89
2023-01-22T07:17:16.564Z,18.10
2023-01-22T07:18:16.772Z,18.20
2023-01-22T07:19:17.240Z,17.20
2023-01-22T07:20:17.187Z,17.70
2023-01-22T07:21:17.123Z,17.39
2023-01-22T07:22:16.418Z,17.29
2023-01-22T07:23:16.751Z,17.5
2023-01-22T07:24:17.203Z,16.79
2023-01-22T07:25:16.892Z,18
2023-01-22T07:26:17.072Z,17.70
2023-01-22T07:27:16.727Z,17.10
2023-01-22T07:28:16.923Z,18.10
2023-01-22T07:29:17.187Z,17.20
2023-01-22T07:30:17.332Z,16.70
2023-01-22T07:31:16.930Z,17.20
2023-01-22T07:32:16.494Z,17
2023-01-22T07:33:16.951Z,17.10
2023-01-22T07:34:16.802Z,17.20
2023-01-22T07:35:16.885Z,17.5
2023-01-22T07:36:16.666Z,17.89
2023-01-22T07:37:16.870Z,18.29
2023-01-22T07:38:16.561Z,17.60
2023-01-22T07:39:17.359Z,18.5
2023-01-22T07:40:17.325Z,17.29
2023-01-22T07:41:25.504Z,17.39
2023-01-22T07:42:16.895Z,17.29
2023-01-22T07:44:16.699Z,17.70
2023-01-22T07:45:17.463Z,17.5
2023-01-22T07:46:17.113Z,17.89
2023-01-22T07:47:16.716Z,16.60
2023-01-22T07:48:17.036Z,16.79
2023-01-22T07:49:16.629Z,17.10
2023-01-22T07:51:17.458Z,16.89
2023-01-22T07:52:17.005Z,17.10
2023-01-22T07:53:16.932Z,17.29
2023-01-22T07:54:18.576Z,16.79
2023-01-22T07:55:17.147Z,17.89
2023-01-22T07:56:16.443Z,17.70
2023-01-22T07:57:17.239Z,18
2023-01-22T07:58:17.110Z,17.5
2023-01-22T07:59:16.930Z,17.89
2023-01-22T08:01:16.494Z,17.70
2023-01-22T08:02:17.171Z,16.89
2023-01-22T08:03:16.654Z,17
2023-01-22T08:04:17.008Z,17.29
2023-01-22T08:05:16.856Z,16.5
2023-01-22T08:07:16.746Z,17.10
2023-01-22T08:08:17.209Z,17.39
2023-01-22T08:09:16.963Z,16.39
2023-01-22T08:10:17.194Z,16.5
2023-01-22T08:11:17.186Z,17.60
2023-01-22T08:12:16.734Z,17.5
2023-01-22T08:14:17.214Z,17
2023-01-22T08:15:17.089Z,16.39
2023-01-22T08:16:16.646Z,17.29
2023-01-22T08:17:16.467Z,17.79
2023-01-22T08:18:19.117Z,17.5
2023-01-22T08:19:16.730Z,17.10
2023-01-22T08:20:17.457Z,17.39
2023-01-22T08:21:16.702Z,18.10
2023-01-22T08:22:17.061Z,17.60
2023-01-22T08:23:17.125Z,17.20
2023-01-22T08:24:17.130Z,18.20
2023-01-22T08:25:16.598Z,17.5
2023-01-22T08:27:16.793Z,18.5
2023-01-22T08:28:17.508Z,17.5
2023-01-22T08:29:17.091Z,17.89
2023-01-22T08:30:17.588Z,17.70
2023-01-22T08:31:27.342Z,17.29
2023-01-22T08:32:17.048Z,17.70
2023-01-22T08:34:16.897Z,17
2023-01-22T08:35:17.570Z,17.60
2023-01-22T08:36:17.035Z,17.39
2023-01-22T08:38:17.342Z,17.89
2023-01-22T08:39:17.028Z,18.10
2023-01-22T08:40:17.028Z,17.20
2023-01-22T08:41:16.781Z,17.89
2023-01-22T08:42:17.208Z,17.60
2023-01-22T08:43:17.141Z,18
2023-01-22T08:44:16.882Z,18.70
2023-01-22T08:45:17.553Z,18
2023-01-22T08:46:16.876Z,18.10
2023-01-22T08:47:17.491Z,17
2023-01-22T08:48:17.361Z,17.39
2023-01-22T08:49:16.967Z,16.5
2023-01-22T08:50:17.438Z,17.29
2023-01-22T08:51:17.065Z,16.5
2023-01-22T08:52:16.981Z,17.29
2023-01-22T08:53:16.876Z,17.39
2023-01-22T08:54:16.630Z,16.70
2023-01-22T08:55:17.052Z,17.60
2023-01-22T08:56:16.813Z,17.70
2023-01-22T08:57:17.203Z,17.39
2023-01-22T08:58:17.036Z,17.29
2023-01-22T08:59:16.967Z,17
2023-01-22T09:00:18.087Z,16.79
2023-01-22T09:01:17.035Z,17
2023-01-22T09:02:17.380Z,16.70
2023-01-22T09:04:17.283Z,16.79
2023-01-22T09:05:16.973Z,16.20
2023-01-22T09:06:17.021Z,17.39
2023-01-22T09:08:17.276Z,16.79
2023-01-22T09:09:17.158Z,17.70
2023-01-22T09:10:18.383Z,17.5
2023-01-22T09:11:16.934Z,16.79
2023-01-22T09:12:21.724Z,16
2023-01-22T09:13:17.443Z,16.79
2023-01-22T09:14:17.310Z,16.5
2023-01-22T09:16:17.022Z,16.89
2023-01-22T09:17:17.091Z,17
2023-01-22T09:18:15.123Z,17.10
2023-01-22T09:19:16.915Z,17.60
2023-01-22T09:20:17.451Z,17.29
2023-01-22T09:21:17.083Z,16.89
2023-01-22T09:22:16.638Z,16.79
2023-01-22T09:23:16.727Z,17.20
2023-01-22T09:24:16.698Z,16.60
2023-01-22T09:25:17.299Z,17.39
2023-01-22T09:26:16.487Z,17.10
2023-01-22T09:27:17.140Z,17
2023-01-22T09:28:30.869Z,17.79
2023-01-22T09:29:17.255Z,16.89
2023-01-22T09:30:17.273Z,17.5
2023-01-22T09:31:17.138Z,17.79
2023-01-22T09:32:16.895Z,17.70
2023-01-22T09:33:16.554Z,17.29
2023-01-22T09:34:16.993Z,17.89
2023-01-22T09:35:16.762Z,17.79
2023-01-22T09:36:17.380Z,17.10
2023-01-22T09:37:17.029Z,17.89
2023-01-22T09:39:17.123Z,17.20
2023-01-22T09:40:17.106Z,16.89
2023-01-22T09:41:16.992Z,17.29
2023-01-22T09:42:16.763Z,17.70
2023-01-22T09:43:17.110Z,17.60
2023-01-22T09:44:16.714Z,17.5
2023-01-22T09:45:17.381Z,17.29
2023-01-22T09:46:17.012Z,17.39
2023-01-22T09:47:16.751Z,16.89
2023-01-22T09:48:17.312Z,16.20
2023-01-22T09:49:17.196Z,17
2023-01-22T09:51:17.248Z,15.89
2023-01-22T09:52:17.118Z,16.89
2023-01-22T09:53:17.062Z,16.29
2023-01-22T09:54:16.868Z,17.20
2023-01-22T09:55:17.007Z,16.29
2023-01-22T09:56:17.008Z,16.39
2023-01-22T09:57:30.804Z,16.60
2023-01-22T10:00:18.164Z,15.69
2023-01-22T10:01:17.331Z,16.20
2023-01-22T10:02:17.295Z,16.60
2023-01-22T10:03:17.253Z,17.10
2023-01-22T10:04:17.051Z,16.10
2023-01-22T10:05:17.226Z,17
2023-01-22T10:06:17.002Z,16.60
2023-01-22T10:07:16.818Z,17.20
2023-01-22T10:08:16.799Z,16.29
2023-01-22T10:09:17.470Z,16.70
2023-01-22T10:10:17.699Z,17.20
2023-01-22T10:12:17.237Z,16.89
2023-01-22T10:13:17.338Z,17.10
2023-01-22T10:14:16.876Z,16.89
2023-01-22T10:15:16.878Z,17.20
2023-01-22T10:16:17.524Z,17
2023-01-22T10:17:17.312Z,16.39
2023-01-22T10:18:17.063Z,17.39
2023-01-22T10:19:17.447Z,16.5
2023-01-22T10:20:17.611Z,16.39
2023-01-22T10:22:16.974Z,17.5
2023-01-22T10:23:16.777Z,16.89
2023-01-22T10:24:17.016Z,17.29
2023-01-22T10:25:17.043Z,17.10
2023-01-22T10:26:16.913Z,16.79
2023-01-22T10:27:17.087Z,16.5
2023-01-22T10:28:16.762Z,16.79
2023-01-22T10:30:18.065Z,17.20
2023-01-22T10:31:17.311Z,16.70
2023-01-22T10:32:17.387Z,16.79
2023-01-22T10:33:17.066Z,17.29
2023-01-22T10:35:17.076Z,16.70
2023-01-22T10:36:16.945Z,17.10
2023-01-22T10:37:17.001Z,16.89
2023-01-22T10:38:17.248Z,16
2023-01-22T10:39:17.219Z,17.39
2023-01-22T10:40:17.471Z,16.60
2023-01-22T10:41:17.583Z,16.20
2023-01-22T10:42:16.847Z,16.10
2023-01-22T10:43:16.882Z,16
2023-01-22T10:44:17.208Z,16.10
2023-01-22T10:45:17.474Z,16
2023-01-22T10:46:17.459Z,15
2023-01-22T10:47:16.566Z,16.29
2023-01-22T10:49:17.462Z,16
2023-01-22T10:50:17.054Z,16.89
2023-01-22T10:51:17.231Z,15.89
2023-01-22T10:52:17.010Z,16.29
2023-01-22T10:53:17.138Z,15.80
2023-01-22T10:54:17.417Z,15.89
2023-01-22T10:55:17.479Z,16.39
2023-01-22T10:56:17.678Z,16.70
2023-01-22T10:57:17.325Z,16.20
2023-01-22T10:58:17.283Z,16
2023-01-22T10:59:16.725Z,15.39
2023-01-22T11:00:17.782Z,16.10
2023-01-22T11:01:17.479Z,15.80
2023-01-22T11:02:17.434Z,15.5
2023-01-22T11:03:17.247Z,16.29
2023-01-22T11:04:17.280Z,15.89
2023-01-22T11:05:17.292Z,16.39
2023-01-22T11:06:17.242Z,16.29
2023-01-22T11:07:16.976Z,16.60
2023-01-22T11:08:17.204Z,16.20
2023-01-22T11:09:16.950Z,16.10
2023-01-22T11:10:18.076Z,16.5
2023-01-22T11:11:16.839Z,16.79
2023-01-22T11:12:16.878Z,16.70
2023-01-22T11:13:17.224Z,16.10
2023-01-22T11:14:17.104Z,15.69
2023-01-22T11:15:17.166Z,15.80
2023-01-22T11:16:17.290Z,15.39
2023-01-22T11:17:17.442Z,16.20
2023-01-22T11:18:17.348Z,16.79
2023-01-22T11:19:23.824Z,15.19
2023-01-22T11:20:17.217Z,15.60
2023-01-22T11:21:17.304Z,15.80
2023-01-22T11:22:17.080Z,16.29
2023-01-22T11:23:16.825Z,15.69
2023-01-22T11:24:16.466Z,16.39
2023-01-22T11:25:17.519Z,16
2023-01-22T11:26:17.433Z,15.69
2023-01-22T11:27:17.427Z,15.89
2023-01-22T11:28:17.374Z,16.29
2023-01-22T11:29:16.869Z,16.5
2023-01-22T11:30:19.821Z,16.20
2023-01-22T11:32:17.281Z,16
2023-01-22T11:33:17.358Z,16.60
2023-01-22T11:34:17.627Z,15.80
2023-01-22T11:35:17.719Z,16
2023-01-22T11:36:17.092Z,16.10
2023-01-22T11:37:17.142Z,16
2023-01-22T11:38:17.104Z,15.69
2023-01-22T11:39:25.184Z,14.89
2023-01-22T11:40:17.922Z,16.70
2023-01-22T11:41:17.305Z,15.69
2023-01-22T11:42:17.472Z,15.39
2023-01-22T11:43:17.423Z,16.20
2023-01-22T11:44:17.400Z,16.29
2023-01-22T11:45:17.772Z,15.69
2023-01-22T11:46:17.032Z,15.80
2023-01-22T11:47:17.366Z,15.39
2023-01-22T11:48:17.287Z,15.10
2023-01-22T11:49:17.166Z,15.19
2023-01-22T11:51:17.212Z,15.10
2023-01-22T11:52:17.284Z,15.39
2023-01-22T11:53:17.097Z,16.79
2023-01-22T11:54:16.968Z,16.29
2023-01-22T11:55:17.316Z,15.5
2023-01-22T11:56:17.115Z,15.39
2023-01-22T11:57:17.439Z,16
2023-01-22T11:58:17.453Z,16.79
2023-01-22T11:59:17.476Z,15.39
2023-01-22T12:00:18.890Z,15.89
2023-01-22T12:01:17.392Z,15.60
2023-01-22T12:02:17.468Z,16.70
2023-01-22T12:03:17.518Z,15.19
2023-01-22T12:05:17.451Z,15.30
2023-01-22T12:06:17.566Z,16.5
2023-01-22T12:07:17.615Z,16.79
2023-01-22T12:08:17.321Z,15.69
2023-01-22T12:09:17.622Z,15.80
2023-01-22T12:10:18.073Z,16.29
2023-01-22T12:11:17.364Z,16
2023-01-22T12:12:17.711Z,16.39
2023-01-22T12:13:17.287Z,16.29
2023-01-22T12:14:17.295Z,15.5
2023-01-22T12:15:17.886Z,16.29
2023-01-22T12:16:16.847Z,16
2023-01-22T12:17:17.575Z,15.39
2023-01-22T12:18:17.163Z,16.60
2023-01-22T12:19:17.145Z,15.80
2023-01-22T12:20:17.949Z,16.79
2023-01-22T12:21:17.266Z,17.10
2023-01-22T12:22:17.665Z,16.89
2023-01-22T12:24:17.832Z,17.39
2023-01-22T12:25:17.440Z,17.60
2023-01-22T12:26:17.656Z,16.89
2023-01-22T12:27:17.647Z,17.60
2023-01-22T12:28:17.026Z,16.79
2023-01-22T12:29:16.986Z,17.89
2023-01-22T12:30:17.569Z,17.10
2023-01-22T12:31:17.242Z,17.5
2023-01-22T12:32:17.370Z,18.39
2023-01-22T12:33:17.097Z,17
2023-01-22T12:34:16.920Z,17.20
2023-01-22T12:35:17.136Z,17
2023-01-22T12:36:17.586Z,17.20
2023-01-22T12:38:17.645Z,17.89
2023-01-22T12:39:17.714Z,18.5
2023-01-22T12:40:17.473Z,18
2023-01-22T12:41:17.035Z,17.70
2023-01-22T12:42:17.320Z,18.39
2023-01-22T12:43:17.252Z,18.20
2023-01-22T12:44:17.046Z,18.39
2023-01-22T12:45:17.443Z,18.20
2023-01-22T12:46:17.335Z,18.29
2023-01-22T12:47:17.409Z,18.89
2023-01-22T12:48:17.530Z,18.5
2023-01-22T12:49:17.555Z,18
2023-01-22T12:50:17.863Z,18.20
2023-01-22T12:51:17.087Z,18.10
2023-01-22T12:52:16.906Z,18.5
2023-01-22T12:53:17.216Z,18.39
2023-01-22T12:54:17.072Z,18.10
2023-01-22T12:55:17.397Z,18
2023-01-22T12:56:17.409Z,19.39
2023-01-22T12:57:17.210Z,19.20
2023-01-22T12:58:17.019Z,18.29
2023-01-22T12:59:17.194Z,18.89
2023-01-22T13:00:18.010Z,18
2023-01-22T13:01:17.003Z,18.60
2023-01-22T13:03:30.246Z,18
2023-01-22T13:04:17.221Z,17.79
2023-01-22T13:05:17.370Z,17
2023-01-22T13:06:17.133Z,18.29
2023-01-22T13:07:17.153Z,18.5
2023-01-22T13:08:17.252Z,18.20
2023-01-22T13:09:17.445Z,18.29
2023-01-22T13:10:17.634Z,18.20
2023-01-22T13:11:17.473Z,19
2023-01-22T13:12:16.937Z,17.79
2023-01-22T13:13:16.904Z,18.60
2023-01-22T13:14:16.939Z,18
2023-01-22T13:15:17.117Z,18.70
2023-01-22T13:16:17.231Z,18.89
2023-01-22T13:17:17.137Z,19.29
2023-01-22T13:18:17.091Z,18.70
2023-01-22T13:19:16.843Z,19.70
2023-01-22T13:20:17.640Z,20
2023-01-22T13:21:16.903Z,18.70
2023-01-22T13:22:17.464Z,19.39
2023-01-22T13:23:17.060Z,18.79
2023-01-22T13:24:17.155Z,18.10
2023-01-22T13:25:17.339Z,18.5
2023-01-22T13:26:17.150Z,18.39
2023-01-22T13:27:16.694Z,18.5
2023-01-22T13:28:17.160Z,18.89
2023-01-22T13:29:17.152Z,19.10
2023-01-22T13:30:17.723Z,18.70
2023-01-22T13:31:17.136Z,19.79
2023-01-22T13:32:16.839Z,19.29
2023-01-22T13:33:16.821Z,18.79
2023-01-22T13:34:16.381Z,17.79
2023-01-22T13:35:19.813Z,17.70
2023-01-22T13:36:16.923Z,18
2023-01-22T13:37:16.735Z,18.5
2023-01-22T13:38:17.282Z,18.70
2023-01-22T13:39:16.873Z,19
2023-01-22T13:41:17.173Z,19.20
2023-01-22T13:42:17.005Z,19.60
2023-01-22T13:43:16.405Z,18.60
2023-01-22T13:44:16.860Z,18.79
2023-01-22T13:45:17.067Z,19.60
2023-01-22T13:46:16.910Z,19.29
2023-01-22T13:48:16.685Z,19
2023-01-22T13:49:17.321Z,19.79
2023-01-22T13:50:17.470Z,19.20
2023-01-22T13:51:16.440Z,19.10
2023-01-22T13:52:17.217Z,18.70
2023-01-22T13:53:17.175Z,20.20
2023-01-22T13:54:17.013Z,19.5
2023-01-22T13:55:17.027Z,19.60